KLNK

Lincoln Airport

Lincoln, Nebraska, USA
KLNK 171124Z 1712/1812 00000KT P6SM FEW250 FM172000 01005KT P6SM FEW250 FM180300 00000KT P6SM FEW250
Issued Valid From Valid To
Aug-17 @ 11:24 UTC
(4 hours ago)
Aug-17 @ 12:00 UTC
(3 hours ago)
Aug-18 @ 12:00 UTC
(in 21 hours)
Aug-17 @ 12:00 to Aug-17 @ 20:00
KLNK 171124Z 1712/1812 00000KT P6SM FEW250
Visibility Clouds
Greater than 6 miles
  • Few at 25,000' AGL
From Aug-17 @ 20:00 to Aug-18 @ 03:00
FM172000 01005KT P6SM FEW250
Wind Visibility Clouds
10° at 5 knots Greater than 6 miles
  • Few at 25,000' AGL
From Aug-18 @ 03:00 to Aug-18 @ 12:00
FM180300 00000KT P6SM FEW250
Visibility Clouds
Greater than 6 miles
  • Few at 25,000' AGL
KLNK 171124Z 1712/1812 00000KT P6SM FEW250 FM172000 01005KT P6SM FEW250 FM180300 00000KT P6SM FEW250
Issued Aug-17 @ 11:24 UTC
(4 hours ago)
Valid From Aug-17 @ 12:00 UTC
(3 hours ago)
Valid To Aug-18 @ 12:00 UTC
(in 21 hours)
Aug-17 @ 12:00 - Aug-17 @ 20:00
Clouds
  • Few at 25,000' AGL
From Aug-17 @ 20:00 - Aug-18 @ 03:00
Wind Visibility
10° at 5 knots Greater than 6 miles
Clouds
  • Few at 25,000' AGL
From Aug-18 @ 03:00 - Aug-18 @ 12:00
Clouds
  • Few at 25,000' AGL